createdAt,value
2023-09-02T00:00:42.746Z,101439.03
2023-09-02T00:03:30.388Z,101440.03
2023-09-02T00:06:18.152Z,101443.38
2023-09-02T00:09:06.185Z,101447.84
2023-09-02T00:11:53.786Z,101446.03
2023-09-02T00:14:41.429Z,101438.22
2023-09-02T00:17:32.901Z,101444.13
2023-09-02T00:20:22.106Z,101446.88
2023-09-02T00:23:09.708Z,101436.28
2023-09-02T00:25:57.363Z,101441.59
2023-09-02T00:28:44.899Z,101441.69
2023-09-02T00:31:34.942Z,101443.28
2023-09-02T00:34:23.735Z,101447.63
2023-09-02T00:37:11.324Z,101457.25
2023-09-02T00:39:59.121Z,101446.56
2023-09-02T00:42:48.957Z,101455.34
2023-09-02T00:45:36.796Z,101455.34
2023-09-02T00:48:24.972Z,101450.91
2023-09-02T00:51:12.757Z,101445.63
2023-09-02T00:54:00.403Z,101453.53
2023-09-02T00:56:49.494Z,101442.13
2023-09-02T00:59:37.245Z,101440.31
2023-09-02T01:02:25.500Z,101442.97
2023-09-02T01:05:14.920Z,101440.22
2023-09-02T01:08:06.344Z,101443.59
2023-09-02T01:10:54.709Z,101444.56
2023-09-02T01:13:42.275Z,101446.22
2023-09-02T01:16:30.972Z,101447.00
2023-09-02T01:19:21.426Z,101446.88
2023-09-02T01:22:26.707Z,101446.88
2023-09-02T01:26:12.296Z,101447.94
2023-09-02T01:29:08.787Z,101449.84
2023-09-02T01:31:57.248Z,101463.09
2023-09-02T01:34:47.078Z,101469.31
2023-09-02T01:37:44.834Z,101469.22
2023-09-02T01:40:34.318Z,101457.78
2023-09-02T01:43:25.137Z,101474.50
2023-09-02T01:46:13.919Z,101478.94
2023-09-02T01:49:03.872Z,101477.25
2023-09-02T01:51:52.639Z,101469.41
2023-09-02T01:54:40.682Z,101468.47
2023-09-02T01:57:28.598Z,101473.78
2023-09-02T02:00:16.900Z,101467.50
2023-09-02T02:03:16.469Z,101470.16
2023-09-02T02:06:15.610Z,101471.03
2023-09-02T02:09:31.395Z,101479.78
2023-09-02T02:12:23.456Z,101485.19
2023-09-02T02:15:13.140Z,101487.72
2023-09-02T02:18:01.078Z,101482.44
2023-09-02T02:21:06.299Z,101472.16
2023-09-02T02:23:54.083Z,101479.91
2023-09-02T02:26:42.072Z,101487.84
2023-09-02T02:29:30.141Z,101491.41
2023-09-02T02:32:17.846Z,101493.22
2023-09-02T02:35:06.901Z,101499.56
2023-09-02T02:37:55.972Z,101490.16
2023-09-02T02:40:43.828Z,101497.25
2023-09-02T02:43:31.983Z,101506.13
2023-09-02T02:46:19.607Z,101498.31
2023-09-02T02:49:07.199Z,101495.66
2023-09-02T02:51:57.310Z,101494.91
2023-09-02T02:54:47.224Z,101493.97
2023-09-02T02:57:34.945Z,101486.88
2023-09-02T03:00:23.641Z,101493.97
2023-09-02T03:03:13.711Z,101499.03
2023-09-02T03:06:06.488Z,101499.16
2023-09-02T03:08:54.346Z,101502.63
2023-09-02T03:11:43.367Z,101497.44
2023-09-02T03:14:31.641Z,101492.25
2023-09-02T03:17:22.028Z,101486.34
2023-09-02T03:20:12.083Z,101490.03
2023-09-02T03:23:00.161Z,101494.59
2023-09-02T03:25:47.958Z,101495.72
2023-09-02T03:28:35.984Z,101499.44
2023-09-02T03:31:24.834Z,101495.94
2023-09-02T03:34:14.580Z,101495.22
2023-09-02T03:37:02.277Z,101493.41
2023-09-02T03:39:49.898Z,101492.56
2023-09-02T03:42:37.801Z,101495.22
2023-09-02T03:45:25.474Z,101496.25
2023-09-02T03:48:13.540Z,101499.75
2023-09-02T03:51:13.740Z,101500.81
2023-09-02T03:54:05.563Z,101499.19
2023-09-02T03:56:54.275Z,101506.00
2023-09-02T03:59:41.896Z,101512.22
2023-09-02T04:02:29.833Z,101519.22
2023-09-02T04:05:17.502Z,101512.13
2023-09-02T04:08:06.264Z,101517.50
2023-09-02T04:10:56.621Z,101507.03
2023-09-02T04:13:44.496Z,101513.41
2023-09-02T04:16:35.058Z,101510.84
2023-09-02T04:19:23.774Z,101514.53
2023-09-02T04:22:12.206Z,101517.38
2023-09-02T04:25:00.041Z,101517.50
2023-09-02T04:27:48.086Z,101521.94
2023-09-02T04:30:35.708Z,101518.31
2023-09-02T04:33:25.396Z,101520.97
2023-09-02T04:36:14.625Z,101520.97
2023-09-02T04:39:05.976Z,101528.69
2023-09-02T04:41:53.852Z,101525.22
2023-09-02T04:44:41.421Z,101532.84
2023-09-02T04:47:29.050Z,101526.81
2023-09-02T04:50:17.230Z,101534.44
2023-09-02T04:53:05.546Z,101537.09
2023-09-02T04:55:56.774Z,101532.44
2023-09-02T04:58:45.201Z,101542.81
2023-09-02T05:01:36.221Z,101539.97
2023-09-02T05:04:23.927Z,101546.75
2023-09-02T05:07:11.572Z,101550.84
2023-09-02T05:09:59.239Z,101552.56
2023-09-02T05:12:47.435Z,101558.59
2023-09-02T05:15:37.310Z,101550.44
2023-09-02T05:18:25.078Z,101551.22
2023-09-02T05:21:12.824Z,101556.50
2023-09-02T05:24:00.579Z,101558.06
2023-09-02T05:26:50.074Z,101548.38
2023-09-02T05:29:37.979Z,101553.00
2023-09-02T05:32:25.719Z,101558.28
2023-09-02T05:35:13.428Z,101558.50
2023-09-02T05:38:01.076Z,101566.63
2023-09-02T05:40:48.664Z,101574.34
2023-09-02T05:43:36.318Z,101578.59
2023-09-02T05:46:24.003Z,101576.59
2023-09-02T05:49:13.532Z,101588.66
2023-09-02T05:52:01.124Z,101591.22
2023-09-02T05:54:49.405Z,101593.66
2023-09-02T05:57:36.968Z,101592.50
2023-09-02T06:00:24.571Z,101587.13
2023-09-02T06:03:12.269Z,101595.88
2023-09-02T06:05:59.969Z,101587.94
2023-09-02T06:08:47.661Z,101593.97
2023-09-02T06:11:35.267Z,101607.97
2023-09-02T06:14:23.031Z,101609.53
2023-09-02T06:17:10.790Z,101608.50
2023-09-02T06:20:00.546Z,101613.69
2023-09-02T06:22:48.534Z,101620.69
2023-09-02T06:25:36.214Z,101625.66
2023-09-02T06:28:25.454Z,101626.41
2023-09-02T06:31:13.623Z,101629.78
2023-09-02T06:34:01.248Z,101638.38
2023-09-02T06:36:48.857Z,101646.03
2023-09-02T06:39:36.406Z,101641.28
2023-09-02T06:42:24.791Z,101642.78
2023-09-02T06:45:12.817Z,101645.22
2023-09-02T06:48:01.918Z,101644.03
2023-09-02T06:50:49.572Z,101651.66
2023-09-02T06:53:40.117Z,101660.22
2023-09-02T06:56:27.727Z,101670.63
2023-09-02T06:59:15.373Z,101670.28
2023-09-02T07:02:03.916Z,101679.31
2023-09-02T07:04:51.564Z,101680.16
2023-09-02T07:07:39.493Z,101689.50
2023-09-02T07:10:27.123Z,101695.31
2023-09-02T07:13:14.794Z,101702.84
2023-09-02T07:16:08.298Z,101699.25
2023-09-02T07:18:56.423Z,101701.56
2023-09-02T07:21:44.092Z,101710.25
2023-09-02T07:24:31.843Z,101706.56
2023-09-02T07:27:19.483Z,101722.97
2023-09-02T07:30:08.245Z,101728.78
2023-09-02T07:32:55.908Z,101734.75
2023-09-02T07:35:43.698Z,101740.78
2023-09-02T07:38:31.302Z,101741.28
2023-09-02T07:41:18.983Z,101742.91
2023-09-02T07:44:06.631Z,101736.75
2023-09-02T07:46:55.302Z,101740.25
2023-09-02T07:49:43.072Z,101747.25
2023-09-02T07:52:31.071Z,101754.00
2023-09-02T07:55:19.262Z,101757.09
2023-09-02T07:58:07.647Z,101754.25
2023-09-02T08:00:58.608Z,101763.69
2023-09-02T08:03:46.324Z,101760.72
2023-09-02T08:06:34.545Z,101760.38
2023-09-02T08:09:22.296Z,101756.69
2023-09-02T08:12:10.597Z,101752.00
2023-09-02T08:14:58.333Z,101756.25
2023-09-02T08:17:46.595Z,101762.94
2023-09-02T08:20:36.773Z,101775.66
2023-09-02T08:23:24.633Z,101772.44
2023-09-02T08:26:14.373Z,101774.53
2023-09-02T08:29:02.155Z,101776.22
2023-09-02T08:31:58.848Z,101773.56
2023-09-02T08:34:46.580Z,101766.59
2023-09-02T08:37:35.982Z,101764.38
2023-09-02T08:40:23.642Z,101767.56
2023-09-02T08:43:13.042Z,101768.75
2023-09-02T08:46:05.713Z,101775.75
2023-09-02T08:48:58.046Z,101778.41
2023-09-02T08:51:47.942Z,101781.38
2023-09-02T08:54:39.512Z,101774.69
2023-09-02T08:57:28.064Z,101779.28
2023-09-02T09:00:15.905Z,101785.53
2023-09-02T09:03:04.699Z,101788.19
2023-09-02T09:05:54.321Z,101800.81
2023-09-02T09:08:43.924Z,101808.78
2023-09-02T09:11:37.307Z,101817.56
2023-09-02T09:14:28.071Z,101814.91
2023-09-02T09:17:17.328Z,101814.09
2023-09-02T09:20:06.428Z,101806.63
2023-09-02T09:22:54.212Z,101811.50
2023-09-02T09:25:43.597Z,101802.91
2023-09-02T09:28:57.955Z,101807.00
2023-09-02T09:31:46.129Z,101807.50
2023-09-02T09:34:47.929Z,101808.25
2023-09-02T09:37:57.493Z,101818.84
2023-09-02T09:40:45.154Z,101827.81
2023-09-02T09:43:33.177Z,101838.75
2023-09-02T09:46:21.571Z,101847.22
2023-09-02T09:49:11.291Z,101848.50
2023-09-02T09:52:01.705Z,101851.53
2023-09-02T09:54:53.860Z,101862.66
2023-09-02T09:57:41.592Z,101858.94
2023-09-02T10:00:31.330Z,101862.44
2023-09-02T10:03:29.983Z,101868.63
2023-09-02T10:06:18.576Z,101877.09
2023-09-02T10:09:06.342Z,101878.78
2023-09-02T10:12:10.314Z,101879.41
2023-09-02T10:15:01.969Z,101875.28
2023-09-02T10:17:49.970Z,101880.09
2023-09-02T10:20:39.671Z,101879.13
2023-09-02T10:23:28.942Z,101878.78
2023-09-02T10:26:38.437Z,101884.59
2023-09-02T10:29:37.973Z,101886.34
2023-09-02T10:32:42.164Z,101887.50
2023-09-02T10:35:33.042Z,101891.94
2023-09-02T10:38:23.437Z,101895.22
2023-09-02T10:41:34.139Z,101894.66
2023-09-02T10:44:25.814Z,101903.84
2023-09-02T10:47:13.450Z,101910.41
2023-09-02T10:50:04.132Z,101916.84
2023-09-02T10:53:08.438Z,101918.41
2023-09-02T10:56:02.318Z,101921.31
2023-09-02T10:58:50.215Z,101916.97
2023-09-02T11:01:49.989Z,101915.88
2023-09-02T11:04:49.169Z,101919.41
2023-09-02T11:07:40.592Z,101911.41
2023-09-02T11:10:56.336Z,101922.41
2023-09-02T11:14:09.129Z,101920.94
2023-09-02T11:17:31.298Z,101917.78
2023-09-02T11:20:26.826Z,101918.00
2023-09-02T11:23:23.142Z,101923.59
2023-09-02T11:26:14.805Z,101912.56
2023-09-02T11:29:30.262Z,101918.28
2023-09-02T11:32:17.852Z,101923.00
2023-09-02T11:35:08.912Z,101919.63
2023-09-02T11:37:57.567Z,101926.63
2023-09-02T11:40:45.778Z,101921.31
2023-09-02T11:43:35.128Z,101924.59
2023-09-02T11:46:29.452Z,101924.25
2023-09-02T11:49:26.181Z,101933.78
2023-09-02T11:52:14.566Z,101936.44
2023-09-02T11:55:16.838Z,101936.56
2023-09-02T11:58:11.720Z,101941.28
2023-09-02T12:00:59.426Z,101945.41
2023-09-02T12:03:48.745Z,101953.03
2023-09-02T12:06:36.526Z,101945.28
2023-09-02T12:09:26.210Z,101955.59
2023-09-02T12:12:16.284Z,101954.16
2023-09-02T12:15:04.483Z,101968.53
2023-09-02T12:17:52.669Z,101970.13
2023-09-02T12:20:41.398Z,101987.47
2023-09-02T12:23:29.181Z,101978.63
2023-09-02T12:26:16.883Z,101990.00
2023-09-02T12:29:25.521Z,101989.16
2023-09-02T12:32:13.172Z,101986.38
2023-09-02T12:35:01.264Z,101985.25
2023-09-02T12:38:12.444Z,101991.59
2023-09-02T12:41:00.278Z,101994.25
2023-09-02T12:43:48.518Z,101997.63
2023-09-02T12:46:36.406Z,101996.28
2023-09-02T12:49:24.084Z,101991.56
2023-09-02T12:52:22.301Z,101992.44
2023-09-02T12:55:10.170Z,101997.00
2023-09-02T12:57:58.421Z,101997.50
2023-09-02T13:00:46.553Z,101985.75
2023-09-02T13:03:34.825Z,101996.06
2023-09-02T13:06:25.078Z,102000.19
2023-09-02T13:09:12.806Z,101997.88
2023-09-02T13:12:03.931Z,101994.84
2023-09-02T13:14:59.274Z,101989.63
2023-09-02T13:17:49.223Z,101999.34
2023-09-02T13:20:39.920Z,101995.31
2023-09-02T13:23:31.957Z,101990.50
2023-09-02T13:26:22.518Z,101991.56
2023-09-02T13:29:10.101Z,102002.59
2023-09-02T13:32:11.737Z,101997.38
2023-09-02T13:35:24.895Z,102000.16
2023-09-02T13:38:20.978Z,101990.84
2023-09-02T13:41:11.750Z,101995.44
2023-09-02T13:43:59.723Z,101991.34
2023-09-02T13:46:56.032Z,101992.16
2023-09-02T13:49:55.583Z,102012.16
2023-09-02T13:52:48.862Z,102006.22
2023-09-02T13:55:48.810Z,102003.13
2023-09-02T13:58:37.583Z,102009.75
2023-09-02T14:01:25.643Z,102011.66
2023-09-02T14:04:13.655Z,102004.34
2023-09-02T14:07:01.830Z,102005.59
2023-09-02T14:09:49.478Z,102006.91
2023-09-02T14:12:37.194Z,102002.63
2023-09-02T14:15:24.922Z,102005.88
2023-09-02T14:18:12.701Z,102000.72
2023-09-02T14:21:00.707Z,101994.72
2023-09-02T14:23:48.354Z,101997.22
2023-09-02T14:27:16.399Z,101994.63
2023-09-02T14:30:17.393Z,101989.69
2023-09-02T14:33:07.985Z,101991.75
2023-09-02T14:35:56.885Z,101984.88
2023-09-02T14:38:45.080Z,101981.31
2023-09-02T14:41:32.640Z,101985.59
2023-09-02T14:44:20.424Z,101980.00
2023-09-02T14:47:09.014Z,101976.53
2023-09-02T14:49:57.036Z,101975.81
2023-09-02T14:52:45.605Z,101978.00
2023-09-02T14:55:34.568Z,101984.47
2023-09-02T14:58:22.405Z,101979.22
2023-09-02T15:01:16.196Z,101983.44
2023-09-02T15:04:05.301Z,101974.41
2023-09-02T15:06:53.184Z,101978.09
2023-09-02T15:09:41.104Z,101979.72
2023-09-02T15:12:30.831Z,101986.50
2023-09-02T15:15:25.053Z,101981.44
2023-09-02T15:18:32.632Z,101982.31
2023-09-02T15:21:20.596Z,101986.19
2023-09-02T15:24:11.263Z,101993.41
2023-09-02T15:27:01.822Z,102001.50
2023-09-02T15:29:51.484Z,101996.91
2023-09-02T15:32:39.192Z,101995.78
2023-09-02T15:35:28.845Z,102004.56
2023-09-02T15:38:19.970Z,102010.28
2023-09-02T15:41:08.332Z,102010.13
2023-09-02T15:43:56.097Z,102003.91
2023-09-02T15:46:44.522Z,102003.47
2023-09-02T15:49:32.380Z,102003.53
2023-09-02T15:52:19.987Z,102005.38
2023-09-02T15:55:08.629Z,102008.13
2023-09-02T15:57:57.500Z,102007.91
2023-09-02T16:00:45.266Z,102007.13
2023-09-02T16:03:33.046Z,102010.22
2023-09-02T16:06:21.835Z,102007.72
2023-09-02T16:09:10.388Z,102012.28
2023-09-02T16:11:58.336Z,102017.63
2023-09-02T16:14:48.439Z,102025.44
2023-09-02T16:17:39.476Z,102021.13
2023-09-02T16:20:27.199Z,102023.84
2023-09-02T16:23:14.935Z,102029.00
2023-09-02T16:26:02.785Z,102025.03
2023-09-02T16:28:50.436Z,102022.78
2023-09-02T16:31:38.134Z,102032.72
2023-09-02T16:34:25.753Z,102041.31
2023-09-02T16:37:17.551Z,102036.19
2023-09-02T16:40:12.968Z,102034.09
2023-09-02T16:43:00.749Z,102037.56
2023-09-02T16:45:49.790Z,102038.09
2023-09-02T16:48:38.192Z,102048.03
2023-09-02T16:51:25.873Z,102043.94
2023-09-02T16:54:14.478Z,102040.75
2023-09-02T16:57:02.261Z,102039.09
2023-09-02T16:59:50.078Z,102040.72
2023-09-02T17:02:50.018Z,102040.25
2023-09-02T17:05:43.122Z,102040.63
2023-09-02T17:08:30.971Z,102039.31
2023-09-02T17:11:20.261Z,102039.19
2023-09-02T17:14:09.412Z,102041.03
2023-09-02T17:16:57.548Z,102034.72
2023-09-02T17:19:46.064Z,102040.44
2023-09-02T17:22:39.636Z,102044.47
2023-09-02T17:25:29.730Z,102043.13
2023-09-02T17:28:33.751Z,102055.34
2023-09-02T17:31:23.682Z,102046.44
2023-09-02T17:34:14.388Z,102050.53
2023-09-02T17:37:10.658Z,102060.97
2023-09-02T17:40:05.254Z,102053.56
2023-09-02T17:42:58.199Z,102062.88
2023-09-02T17:45:45.829Z,102062.41
2023-09-02T17:48:36.020Z,102063.84
2023-09-02T17:51:24.156Z,102067.72
2023-09-02T17:54:17.969Z,102070.81
2023-09-02T17:57:06.267Z,102075.63
2023-09-02T17:59:54.220Z,102075.16
2023-09-02T18:02:47.621Z,102079.13
2023-09-02T18:05:36.672Z,102083.84
2023-09-02T18:08:29.248Z,102081.75
2023-09-02T18:11:23.377Z,102088.28
2023-09-02T18:14:11.235Z,102094.81
2023-09-02T18:16:59.483Z,102096.22
2023-09-02T18:19:48.643Z,102112.53
2023-09-02T18:22:37.372Z,102108.50
2023-09-02T18:25:28.608Z,102108.72
2023-09-02T18:28:16.512Z,102112.72
2023-09-02T18:31:05.952Z,102110.50
2023-09-02T18:33:55.598Z,102124.03
2023-09-02T18:36:43.768Z,102130.63
2023-09-02T18:39:31.973Z,102128.38
2023-09-02T18:42:19.758Z,102136.59
2023-09-02T18:45:08.196Z,102135.47
2023-09-02T18:47:57.455Z,102140.78
2023-09-02T18:50:47.832Z,102142.91
2023-09-02T18:53:37.692Z,102155.56
2023-09-02T18:56:26.989Z,102153.34
2023-09-02T18:59:18.831Z,102158.88
2023-09-02T19:02:11.117Z,102159.22
2023-09-02T19:05:05.578Z,102150.72
2023-09-02T19:07:53.309Z,102160.19
2023-09-02T19:10:40.994Z,102159.88
2023-09-02T19:13:28.670Z,102157.84
2023-09-02T19:16:18.199Z,102167.19
2023-09-02T19:19:07.855Z,102164.84
2023-09-02T19:21:56.116Z,102164.44
2023-09-02T19:24:44.714Z,102167.50
2023-09-02T19:27:32.463Z,102166.19
2023-09-02T19:30:20.562Z,102176.25
2023-09-02T19:33:11.100Z,102170.41
2023-09-02T19:36:02.936Z,102169.66
2023-09-02T19:38:51.729Z,102176.31
2023-09-02T19:41:40.665Z,102172.19
2023-09-02T19:44:34.218Z,102175.25
2023-09-02T19:47:22.674Z,102187.00
2023-09-02T19:50:12.118Z,102187.31
2023-09-02T19:52:59.850Z,102189.22
2023-09-02T19:55:49.139Z,102190.38
2023-09-02T19:58:43.808Z,102194.84
2023-09-02T20:01:39.438Z,102198.63
2023-09-02T20:04:27.736Z,102209.34
2023-09-02T20:07:15.589Z,102200.75
2023-09-02T20:10:04.876Z,102207.19
2023-09-02T20:12:53.768Z,102210.03
2023-09-02T20:15:42.188Z,102210.31
2023-09-02T20:18:33.940Z,102221.13
2023-09-02T20:21:23.128Z,102216.91
2023-09-02T20:24:11.751Z,102212.53
2023-09-02T20:26:59.928Z,102226.81
2023-09-02T20:29:47.767Z,102221.81
2023-09-02T20:32:36.713Z,102222.78
2023-09-02T20:35:24.752Z,102224.84
2023-09-02T20:38:12.551Z,102230.34
2023-09-02T20:41:02.176Z,102228.72
2023-09-02T20:43:52.362Z,102241.22
2023-09-02T20:46:41.409Z,102245.78
2023-09-02T20:49:37.848Z,102251.16
2023-09-02T20:52:25.967Z,102255.44
2023-09-02T20:55:14.183Z,102247.09
2023-09-02T20:58:05.217Z,102260.34
2023-09-02T21:00:54.377Z,102260.63
2023-09-02T21:03:42.173Z,102270.47
2023-09-02T21:06:32.426Z,102263.75
2023-09-02T21:09:20.175Z,102264.91
2023-09-02T21:12:11.150Z,102272.06
2023-09-02T21:15:00.355Z,102269.03
2023-09-02T21:17:48.386Z,102275.09
2023-09-02T21:20:44.282Z,102286.06
2023-09-02T21:23:34.766Z,102281.91
2023-09-02T21:26:22.737Z,102274.50
2023-09-02T21:29:16.892Z,102278.94
2023-09-02T21:32:05.824Z,102276.84
2023-09-02T21:34:53.424Z,102289.41
2023-09-02T21:37:41.563Z,102290.44
2023-09-02T21:40:29.914Z,102292.44
2023-09-02T21:43:17.591Z,102296.22
2023-09-02T21:46:09.591Z,102292.13
2023-09-02T21:48:57.737Z,102293.22
2023-09-02T21:51:46.388Z,102295.22
2023-09-02T21:54:36.443Z,102287.63
2023-09-02T21:57:26.488Z,102288.97
2023-09-02T22:00:14.617Z,102291.88
2023-09-02T22:03:02.285Z,102290.63
2023-09-02T22:06:10.608Z,102294.38
2023-09-02T22:08:58.432Z,102304.28
2023-09-02T22:11:46.908Z,102310.84
2023-09-02T22:14:34.763Z,102310.25
2023-09-02T22:17:22.769Z,102305.97
2023-09-02T22:20:11.060Z,102304.50
2023-09-02T22:23:01.118Z,102310.84
2023-09-02T22:25:49.764Z,102315.44
2023-09-02T22:28:38.180Z,102323.53
2023-09-02T22:31:27.440Z,102322.09
2023-09-02T22:34:15.108Z,102333.75
2023-09-02T22:37:02.906Z,102339.22
2023-09-02T22:39:51.789Z,102342.09
2023-09-02T22:42:39.442Z,102340.47
2023-09-02T22:45:27.062Z,102339.72
2023-09-02T22:48:17.240Z,102333.81
2023-09-02T22:51:07.438Z,102337.38
2023-09-02T22:53:55.284Z,102349.69
2023-09-02T22:56:43.839Z,102350.84
2023-09-02T22:59:31.924Z,102351.00
2023-09-02T23:02:19.708Z,102354.75
2023-09-02T23:05:08.283Z,102349.69
2023-09-02T23:07:56.605Z,102352.59
2023-09-02T23:10:45.104Z,102350.03
2023-09-02T23:13:34.061Z,102340.59
2023-09-02T23:16:21.723Z,102338.34
2023-09-02T23:19:09.460Z,102346.28
2023-09-02T23:21:59.675Z,102342.06
2023-09-02T23:24:47.252Z,102347.44
2023-09-02T23:27:35.353Z,102344.88
2023-09-02T23:30:23.119Z,102336.19
2023-09-02T23:33:18.443Z,102329.34
2023-09-02T23:36:06.553Z,102329.34
2023-09-02T23:38:54.215Z,102334.69
2023-09-02T23:41:41.897Z,102326.09
2023-09-02T23:44:29.513Z,102337.41
2023-09-02T23:47:17.369Z,102343.81
2023-09-02T23:50:08.348Z,102353.50
2023-09-02T23:52:55.954Z,102358.00
2023-09-02T23:55:46.446Z,102345.19
2023-09-02T23:58:34.052Z,102355.69
